罗盘
风向 的
风: 2 kt, 1 beaufort

添加一条跑道以查看侧风和逆风信息。

添置 跑道
0 1.000 2.000 3.000 4.000 5.000
FEW 2.000 ft
SCT 4.000 ft
METAR AYPY 152100Z VRB02KT 9999 FEW020 SCT040 25/23 Q1011

METAR Manari Airport - AYMA/MRM

Manari Airport是Manari,巴布亚新几内亚中的小机场。 视场标高为2.630 ft。 该领域的国际民航组织标志是AYMA 它的国际航空运输协会代码是MRM.

这份报告是针对2022年8月16日 07:00, 当地时间在傑克遜斯國際機場进行的。

机场观察

可变方向的风很小或没有风。

可见度为10 km 或者更多。

有几云在2.000 ft的高度 和 疏云,零星散落的云朵在4.000 ft的高度。 没有观察到天花板。

温度和风寒是25 °C。 露点为23 °C,相对湿度为89%。 海平面上的气压为1011 hPa (QNH)。

白天

今天,太阳从06:19升起,在18:08降落。 这适用于Manari Airport,世界夏令时可能有所不同。 当地时间与世界标准时间之间的时差为+10 小时。 夏令时目前正在进行中。

公司介绍

我们没有关于这个机场的公司信息。

体会

到Vliegles.nl去找飞行课程,跳伞和其他飞行体验。 浏览页面,了解Manari Airport附近所有可用的活动。 你也可以使用搜索功能来寻找你所在地附近的特定飞行课程、跳伞或其他飞行体验。

乌云

2.000 ft FEW 几云
4.000 ft SCT 疏云,零星散落的云朵

温度 & 天气

温度 25 °C
露点 23 °C
相对湿度 89%
Kp-index 0  

白天

日出
06:21
中午
12:15
日落
18:09

小工具

你想在你的网站上有一个关于Manari Airport的当前航空天气(METAR)的小部件吗?

</> 显示HTML代码

我们和第三方通过cookies跟踪您在我们网站上的上网行为。如果您继续,我们认为您同意我们的cookie政策。 了解更多